createdAt,value
2022-08-17T00:00:34.420Z,21.41
2022-08-17T00:03:06.645Z,21.39
2022-08-17T00:05:39.837Z,21.19
2022-08-17T00:08:08.098Z,21.15
2022-08-17T00:10:36.825Z,21.05
2022-08-17T00:13:14.269Z,21.04
2022-08-17T00:15:44.050Z,20.93
2022-08-17T00:19:06.183Z,20.70
2022-08-17T00:21:04.785Z,20.76
2022-08-17T00:23:39.385Z,20.61
2022-08-17T00:26:16.094Z,20.50
2022-08-17T00:29:04.765Z,20.48
2022-08-17T00:31:33.658Z,20.40
2022-08-17T00:34:01.681Z,20.12
2022-08-17T00:36:31.354Z,20.17
2022-08-17T00:38:59.473Z,20.15
2022-08-17T00:41:29.587Z,20.01
2022-08-17T00:44:01.888Z,20.00
2022-08-17T00:46:32.838Z,19.88
2022-08-17T00:49:01.504Z,19.83
2022-08-17T00:51:34.682Z,19.70
2022-08-17T00:54:08.185Z,19.82
2022-08-17T00:56:40.939Z,19.79
2022-08-17T00:59:10.303Z,19.83
2022-08-17T01:01:39.257Z,19.83
2022-08-17T01:04:08.683Z,19.85
2022-08-17T01:06:38.698Z,19.74
2022-08-17T01:09:08.697Z,19.81
2022-08-17T01:11:39.530Z,19.79
2022-08-17T01:14:08.986Z,19.55
2022-08-17T01:16:38.464Z,19.83
2022-08-17T01:19:11.757Z,19.79
2022-08-17T01:21:45.094Z,19.76
2022-08-17T01:24:14.862Z,19.71
2022-08-17T01:26:45.946Z,19.53
2022-08-17T01:29:14.655Z,19.42
2022-08-17T01:31:47.440Z,19.32
2022-08-17T01:34:17.720Z,19.35
2022-08-17T01:36:49.797Z,19.27
2022-08-17T01:39:26.431Z,19.23
2022-08-17T01:42:00.614Z,19.30
2022-08-17T01:44:29.217Z,19.03
2022-08-17T01:46:58.421Z,19.19
2022-08-17T01:49:29.280Z,19.12
2022-08-17T01:51:57.972Z,19.08
2022-08-17T01:54:29.568Z,19.07
2022-08-17T01:56:57.637Z,18.99
2022-08-17T01:59:25.727Z,18.91
2022-08-17T02:01:53.874Z,18.73
2022-08-17T02:04:21.915Z,18.74
2022-08-17T02:06:53.408Z,18.69
2022-08-17T02:09:25.537Z,18.63
2022-08-17T02:11:56.558Z,18.32
2022-08-17T02:14:25.863Z,18.32
2022-08-17T02:16:56.163Z,18.44
2022-08-17T02:19:24.694Z,18.32
2022-08-17T02:21:54.770Z,18.39
2022-08-17T02:25:00.720Z,18.39
2022-08-17T02:27:16.598Z,18.37
2022-08-17T02:29:44.606Z,18.35
2022-08-17T02:32:20.889Z,18.35
2022-08-17T02:34:56.213Z,18.34
2022-08-17T02:37:24.454Z,18.24
2022-08-17T02:39:52.747Z,18.34
2022-08-17T02:42:27.805Z,18.38
2022-08-17T02:44:56.036Z,18.29
2022-08-17T02:47:24.596Z,18.39
2022-08-17T02:49:55.548Z,18.37
2022-08-17T02:52:43.854Z,18.25
2022-08-17T02:55:17.725Z,18.30
2022-08-17T02:57:50.095Z,18.12
2022-08-17T03:00:22.394Z,18.24
2022-08-17T03:02:51.601Z,18.35
2022-08-17T03:05:23.093Z,18.33
2022-08-17T03:07:51.368Z,18.17
2022-08-17T03:10:20.393Z,18.05
2022-08-17T03:12:50.424Z,18.07
2022-08-17T03:15:20.829Z,18.05
2022-08-17T03:17:49.208Z,18.01
2022-08-17T03:20:18.373Z,17.91
2022-08-17T03:22:53.517Z,17.92
2022-08-17T03:25:27.199Z,17.91
2022-08-17T03:27:58.394Z,17.81
2022-08-17T03:30:28.457Z,17.90
2022-08-17T03:33:00.022Z,17.85
2022-08-17T03:35:31.245Z,17.85
2022-08-17T03:38:01.290Z,17.91
2022-08-17T03:40:34.770Z,17.86
2022-08-17T03:43:22.058Z,17.71
2022-08-17T03:46:11.039Z,17.80
2022-08-17T03:49:12.826Z,17.51
2022-08-17T03:51:54.784Z,17.74
2022-08-17T03:54:40.185Z,17.72
2022-08-17T03:57:10.314Z,17.71
2022-08-17T03:59:41.979Z,17.76
2022-08-17T04:02:14.375Z,17.65
2022-08-17T04:04:42.740Z,17.61
2022-08-17T04:07:10.972Z,17.76
2022-08-17T04:09:39.081Z,17.72
2022-08-17T04:12:07.423Z,17.83
2022-08-17T04:14:51.951Z,17.71
2022-08-17T04:17:25.477Z,17.85
2022-08-17T04:19:54.478Z,17.81
2022-08-17T04:22:30.930Z,17.81
2022-08-17T04:25:05.934Z,17.93
2022-08-17T04:27:34.057Z,18.02
2022-08-17T04:30:02.303Z,18.12
2022-08-17T04:33:03.783Z,18.13
2022-08-17T04:35:22.465Z,18.27
2022-08-17T04:37:50.698Z,18.36
2022-08-17T04:40:37.399Z,18.27
2022-08-17T04:43:07.493Z,18.49
2022-08-17T04:45:35.660Z,18.51
2022-08-17T04:48:05.426Z,18.47
2022-08-17T04:50:34.924Z,18.33
2022-08-17T04:53:03.317Z,18.49
2022-08-17T04:55:31.437Z,18.58
2022-08-17T04:57:59.527Z,18.62
2022-08-17T05:00:27.707Z,18.67
2022-08-17T05:02:56.965Z,18.76
2022-08-17T05:05:28.648Z,18.78
2022-08-17T05:07:58.686Z,18.88
2022-08-17T05:10:29.847Z,18.89
2022-08-17T05:13:01.683Z,18.87
2022-08-17T05:15:33.142Z,19.08
2022-08-17T05:18:04.725Z,19.07
2022-08-17T05:20:34.846Z,19.07
2022-08-17T05:23:10.747Z,19.24
2022-08-17T05:25:41.743Z,19.28
2022-08-17T05:28:10.881Z,19.41
2022-08-17T05:30:40.455Z,19.46
2022-08-17T05:33:11.287Z,19.32
2022-08-17T05:35:44.480Z,19.47
2022-08-17T05:38:12.553Z,19.17
2022-08-17T05:40:41.567Z,19.48
2022-08-17T05:43:11.875Z,19.54
2022-08-17T05:45:55.849Z,19.54
2022-08-17T05:48:39.042Z,19.67
2022-08-17T05:51:24.505Z,19.80
2022-08-17T05:54:05.178Z,19.88
2022-08-17T05:56:50.517Z,19.97
2022-08-17T05:59:30.556Z,20.16
2022-08-17T06:02:08.266Z,20.19
2022-08-17T06:04:51.053Z,20.35
2022-08-17T06:07:26.528Z,20.31
2022-08-17T06:10:01.613Z,20.25
2022-08-17T06:12:42.022Z,20.39
2022-08-17T06:15:26.353Z,20.52
2022-08-17T06:17:57.382Z,20.62
2022-08-17T06:20:28.862Z,20.63
2022-08-17T06:23:06.684Z,20.76
2022-08-17T06:25:40.018Z,20.82
2022-08-17T06:28:14.269Z,20.72
2022-08-17T06:31:00.595Z,20.81
2022-08-17T06:33:34.341Z,21.04
2022-08-17T06:36:16.081Z,21.12
2022-08-17T06:38:58.654Z,21.27
2022-08-17T06:41:37.997Z,21.34
2022-08-17T06:44:43.723Z,21.34
2022-08-17T06:47:09.033Z,21.40
2022-08-17T06:49:43.579Z,21.54
2022-08-17T06:52:45.725Z,21.58
2022-08-17T06:55:17.972Z,21.76
2022-08-17T06:57:51.112Z,21.80
2022-08-17T07:00:23.892Z,21.87
2022-08-17T07:02:58.009Z,21.92
2022-08-17T07:05:31.817Z,22.14
2022-08-17T07:08:06.043Z,22.23
2022-08-17T07:10:42.715Z,22.42
2022-08-17T07:13:35.581Z,22.52
2022-08-17T07:16:15.548Z,22.66
2022-08-17T07:18:44.543Z,22.73
2022-08-17T07:21:26.918Z,22.85
2022-08-17T07:24:08.142Z,23.03
2022-08-17T07:26:38.916Z,22.99
2022-08-17T07:29:09.441Z,23.30
2022-08-17T07:31:41.257Z,23.49
2022-08-17T07:34:14.613Z,23.58
2022-08-17T07:36:43.606Z,23.66
2022-08-17T07:39:11.809Z,23.53
2022-08-17T07:41:57.610Z,23.69
2022-08-17T07:44:28.062Z,23.76
2022-08-17T07:47:14.470Z,23.88
2022-08-17T07:49:46.152Z,24.05
2022-08-17T07:52:50.439Z,24.06
2022-08-17T07:55:29.438Z,24.30
2022-08-17T07:58:00.747Z,24.34
2022-08-17T08:00:32.180Z,24.59
2022-08-17T08:03:16.030Z,24.67
2022-08-17T08:05:53.378Z,24.84
2022-08-17T08:08:29.879Z,24.96
2022-08-17T08:11:05.384Z,24.97
2022-08-17T08:13:36.119Z,25.06
2022-08-17T08:16:24.474Z,25.43
2022-08-17T08:18:57.163Z,25.47
2022-08-17T08:21:36.523Z,25.55
2022-08-17T08:24:30.040Z,25.60
2022-08-17T08:27:08.167Z,25.79
2022-08-17T08:29:47.434Z,25.95
2022-08-17T08:32:22.167Z,25.92
2022-08-17T08:35:02.023Z,25.90
2022-08-17T08:37:43.639Z,26.01
2022-08-17T08:40:31.373Z,26.04
2022-08-17T08:43:08.362Z,26.25
2022-08-17T08:45:47.218Z,26.08
2022-08-17T08:48:53.667Z,26.39
2022-08-17T08:51:27.945Z,26.60
2022-08-17T08:54:03.385Z,26.57
2022-08-17T08:56:38.474Z,26.83
2022-08-17T08:59:15.232Z,26.90
2022-08-17T09:01:58.149Z,26.91
2022-08-17T09:05:12.412Z,26.92
2022-08-17T09:07:42.538Z,26.92
2022-08-17T09:10:22.353Z,26.94
2022-08-17T09:13:09.247Z,27.31
2022-08-17T09:15:44.170Z,27.30
2022-08-17T09:19:02.256Z,27.36
2022-08-17T09:21:18.190Z,27.42
2022-08-17T09:23:59.732Z,27.43
2022-08-17T09:26:32.629Z,27.40
2022-08-17T09:29:07.275Z,27.41
2022-08-17T09:31:47.006Z,27.62
2022-08-17T09:34:36.171Z,27.65
2022-08-17T09:37:13.912Z,27.48
2022-08-17T09:39:47.680Z,27.32
2022-08-17T09:42:22.776Z,27.08
2022-08-17T09:44:59.448Z,27.14
2022-08-17T09:47:34.764Z,27.23
2022-08-17T09:50:11.544Z,27.30
2022-08-17T09:52:39.669Z,27.49
2022-08-17T09:55:08.255Z,27.59
2022-08-17T09:57:52.355Z,27.92
2022-08-17T10:00:27.058Z,28.01
2022-08-17T10:03:30.537Z,28.02
2022-08-17T10:06:07.848Z,27.79
2022-08-17T10:08:44.338Z,27.96
2022-08-17T10:11:33.644Z,28.27
2022-08-17T10:14:35.938Z,28.37
2022-08-17T10:17:04.158Z,28.20
2022-08-17T10:19:38.983Z,28.08
2022-08-17T10:22:39.842Z,28.12
2022-08-17T10:25:42.553Z,28.27
2022-08-17T10:28:25.879Z,28.19
2022-08-17T10:31:30.792Z,28.32
2022-08-17T10:34:00.289Z,28.35
2022-08-17T10:36:38.567Z,28.34
2022-08-17T10:39:22.362Z,28.46
2022-08-17T10:41:55.222Z,28.82
2022-08-17T10:44:38.694Z,29.11
2022-08-17T10:47:11.338Z,29.49
2022-08-17T10:49:46.602Z,30.23
2022-08-17T10:52:50.087Z,30.88
2022-08-17T10:55:21.347Z,30.69
2022-08-17T10:57:51.583Z,30.84
2022-08-17T11:01:05.774Z,30.76
2022-08-17T11:03:34.050Z,30.86
2022-08-17T11:06:12.712Z,31.02
2022-08-17T11:09:20.734Z,31.82
2022-08-17T11:12:09.173Z,31.42
2022-08-17T11:14:53.931Z,30.98
2022-08-17T11:17:41.531Z,31.29
2022-08-17T11:20:22.819Z,31.32
2022-08-17T11:23:25.997Z,31.07
2022-08-17T11:25:57.032Z,31.58
2022-08-17T11:28:34.566Z,31.78
2022-08-17T11:31:08.276Z,31.63
2022-08-17T11:34:03.737Z,31.48
2022-08-17T11:37:04.134Z,32.09
2022-08-17T11:40:05.517Z,31.88
2022-08-17T11:42:49.016Z,32.45
2022-08-17T11:45:48.309Z,32.34
2022-08-17T11:48:39.059Z,32.02
2022-08-17T11:51:32.139Z,31.37
2022-08-17T11:54:31.239Z,31.03
2022-08-17T11:56:53.814Z,29.86
2022-08-17T11:59:57.713Z,29.58
2022-08-17T12:02:49.115Z,29.81
2022-08-17T12:05:33.350Z,29.89
2022-08-17T12:08:19.803Z,30.12
2022-08-17T12:10:58.139Z,30.33
2022-08-17T12:13:30.583Z,30.98
2022-08-17T12:16:07.413Z,31.18
2022-08-17T12:18:39.523Z,31.76
2022-08-17T12:21:28.055Z,32.24
2022-08-17T12:24:03.294Z,32.30
2022-08-17T12:26:33.485Z,31.97
2022-08-17T12:29:05.659Z,31.58
2022-08-17T12:31:45.525Z,31.32
2022-08-17T12:34:19.600Z,31.55
2022-08-17T12:36:51.218Z,31.68
2022-08-17T12:39:22.354Z,31.63
2022-08-17T12:42:01.999Z,32.27
2022-08-17T12:44:32.596Z,32.71
2022-08-17T12:47:04.753Z,33.50
2022-08-17T12:49:37.405Z,33.79
2022-08-17T12:52:10.259Z,34.25
2022-08-17T12:54:43.419Z,34.16
2022-08-17T12:57:15.851Z,34.46
2022-08-17T12:59:47.284Z,33.97
2022-08-17T13:02:32.275Z,33.53
2022-08-17T13:05:03.089Z,33.35
2022-08-17T13:07:36.313Z,33.21
2022-08-17T13:10:06.850Z,33.64
2022-08-17T13:12:36.889Z,33.86
2022-08-17T13:15:05.566Z,34.46
2022-08-17T13:17:36.880Z,34.96
2022-08-17T13:20:15.781Z,34.91
2022-08-17T13:22:44.522Z,34.84
2022-08-17T13:25:17.833Z,34.77
2022-08-17T13:27:49.139Z,34.26
2022-08-17T13:30:24.073Z,34.25
2022-08-17T13:32:53.923Z,34.47
2022-08-17T13:35:42.977Z,34.43
2022-08-17T13:38:15.809Z,34.25
2022-08-17T13:40:51.960Z,34.27
2022-08-17T13:43:40.861Z,34.70
2022-08-17T13:46:11.438Z,34.42
2022-08-17T13:48:40.040Z,34.26
2022-08-17T13:51:28.281Z,34.61
2022-08-17T13:54:09.557Z,34.68
2022-08-17T13:56:50.893Z,35.12
2022-08-17T13:59:53.900Z,35.36
2022-08-17T14:02:22.263Z,35.77
2022-08-17T14:04:50.541Z,35.83
2022-08-17T14:07:30.196Z,36.19
2022-08-17T14:10:00.806Z,36.36
2022-08-17T14:12:31.663Z,35.56
2022-08-17T14:15:00.484Z,35.60
2022-08-17T14:17:34.961Z,35.61
2022-08-17T14:20:07.326Z,35.70
2022-08-17T14:22:40.860Z,35.57
2022-08-17T14:25:10.670Z,35.76
2022-08-17T14:27:47.091Z,35.53
2022-08-17T14:30:23.157Z,35.62
2022-08-17T14:32:52.195Z,35.50
2022-08-17T14:35:23.218Z,35.50
2022-08-17T14:37:53.701Z,35.56
2022-08-17T14:40:24.570Z,35.08
2022-08-17T14:42:55.107Z,35.59
2022-08-17T14:45:32.075Z,35.74
2022-08-17T14:48:04.168Z,35.65
2022-08-17T14:50:35.283Z,35.41
2022-08-17T14:53:06.767Z,35.68
2022-08-17T14:55:36.222Z,35.72
2022-08-17T14:58:05.095Z,35.50
2022-08-17T15:00:33.315Z,35.64
2022-08-17T15:03:02.500Z,35.49
2022-08-17T15:05:32.667Z,35.55
2022-08-17T15:08:01.616Z,35.62
2022-08-17T15:10:31.778Z,35.61
2022-08-17T15:13:00.437Z,35.56
2022-08-17T15:15:29.601Z,35.64
2022-08-17T15:17:58.155Z,35.45
2022-08-17T15:20:30.047Z,34.69
2022-08-17T15:22:59.322Z,34.11
2022-08-17T15:25:31.895Z,34.13
2022-08-17T15:28:02.400Z,34.50
2022-08-17T15:30:34.430Z,34.82
2022-08-17T15:33:03.717Z,34.82
2022-08-17T15:35:33.819Z,35.03
2022-08-17T15:38:10.562Z,35.31
2022-08-17T15:40:44.321Z,35.22
2022-08-17T15:43:15.730Z,35.41
2022-08-17T15:45:44.893Z,35.65
2022-08-17T15:48:40.795Z,35.70
2022-08-17T15:51:11.059Z,35.66
2022-08-17T15:53:40.342Z,35.72
2022-08-17T15:56:09.723Z,35.76
2022-08-17T15:58:40.167Z,35.62
2022-08-17T16:01:14.697Z,35.58
2022-08-17T16:04:04.235Z,35.40
2022-08-17T16:06:35.018Z,34.88
2022-08-17T16:09:03.124Z,34.76
2022-08-17T16:11:31.266Z,34.53
2022-08-17T16:14:00.702Z,34.35
2022-08-17T16:16:31.234Z,34.72
2022-08-17T16:18:59.447Z,33.82
2022-08-17T16:21:29.670Z,33.66
2022-08-17T16:24:02.144Z,33.29
2022-08-17T16:26:34.981Z,32.65
2022-08-17T16:29:07.864Z,32.19
2022-08-17T16:31:39.084Z,32.07
2022-08-17T16:34:17.527Z,32.14
2022-08-17T16:36:53.689Z,32.19
2022-08-17T16:39:23.987Z,31.94
2022-08-17T16:41:52.013Z,31.50
2022-08-17T16:44:22.736Z,31.42
2022-08-17T16:46:51.411Z,31.19
2022-08-17T16:49:35.384Z,30.91
2022-08-17T16:52:05.810Z,30.65
2022-08-17T16:54:35.494Z,30.51
2022-08-17T16:57:05.223Z,30.41
2022-08-17T16:59:40.925Z,30.10
2022-08-17T17:02:14.386Z,29.93
2022-08-17T17:04:47.524Z,29.83
2022-08-17T17:07:33.924Z,29.48
2022-08-17T17:10:06.404Z,29.43
2022-08-17T17:12:59.694Z,29.40
2022-08-17T17:15:28.693Z,29.11
2022-08-17T17:18:06.780Z,28.83
2022-08-17T17:20:43.813Z,28.72
2022-08-17T17:23:26.310Z,28.59
2022-08-17T17:26:04.175Z,28.36
2022-08-17T17:28:40.596Z,28.31
2022-08-17T17:31:17.561Z,28.22
2022-08-17T17:33:50.976Z,28.10
2022-08-17T17:36:27.166Z,28.01
2022-08-17T17:39:00.396Z,27.86
2022-08-17T17:41:42.840Z,27.78
2022-08-17T17:44:15.223Z,27.60
2022-08-17T17:46:52.542Z,27.57
2022-08-17T17:49:22.190Z,27.37
2022-08-17T17:52:08.588Z,27.39
2022-08-17T17:54:55.130Z,27.58
2022-08-17T17:57:31.763Z,27.46
2022-08-17T18:00:08.162Z,27.45
2022-08-17T18:02:51.527Z,27.31
2022-08-17T18:05:35.627Z,27.24
2022-08-17T18:08:14.343Z,27.15
2022-08-17T18:10:51.192Z,26.72
2022-08-17T18:13:27.411Z,26.79
2022-08-17T18:16:00.731Z,26.68
2022-08-17T18:18:37.998Z,26.82
2022-08-17T18:21:14.929Z,26.69
2022-08-17T18:23:58.819Z,26.43
2022-08-17T18:26:41.917Z,26.53
2022-08-17T18:29:30.272Z,26.50
2022-08-17T18:32:33.211Z,26.44
2022-08-17T18:35:22.264Z,26.26
2022-08-17T18:37:51.795Z,26.27
2022-08-17T18:40:41.287Z,26.33
2022-08-17T18:43:13.409Z,26.20
2022-08-17T18:45:45.883Z,26.25
2022-08-17T18:48:30.274Z,26.16
2022-08-17T18:51:26.227Z,26.15
2022-08-17T18:54:19.972Z,26.19
2022-08-17T18:56:54.056Z,26.11
2022-08-17T18:59:30.275Z,26.11
2022-08-17T19:02:34.588Z,26.10
2022-08-17T19:05:11.184Z,26.04
2022-08-17T19:07:42.362Z,26.06
2022-08-17T19:10:23.963Z,26.10
2022-08-17T19:13:00.712Z,26.14
2022-08-17T19:15:34.470Z,26.06
2022-08-17T19:18:09.940Z,26.00
2022-08-17T19:20:46.879Z,26.04
2022-08-17T19:23:22.237Z,25.85
2022-08-17T19:25:52.563Z,25.79
2022-08-17T19:28:24.968Z,25.87
2022-08-17T19:30:57.787Z,25.65
2022-08-17T19:33:26.212Z,25.75
2022-08-17T19:36:07.034Z,25.71
2022-08-17T19:38:48.749Z,25.67
2022-08-17T19:41:23.702Z,25.56
2022-08-17T19:44:13.957Z,25.56
2022-08-17T19:46:50.653Z,25.49
2022-08-17T19:49:41.855Z,25.35
2022-08-17T19:52:22.048Z,25.42
2022-08-17T19:54:58.925Z,25.31
2022-08-17T19:57:38.182Z,25.22
2022-08-17T20:00:11.419Z,25.34
2022-08-17T20:02:48.056Z,25.30
2022-08-17T20:05:21.516Z,25.26
2022-08-17T20:07:55.690Z,25.21
2022-08-17T20:10:48.073Z,25.21
2022-08-17T20:13:33.011Z,25.32
2022-08-17T20:16:02.098Z,25.23
2022-08-17T20:18:50.341Z,25.31
2022-08-17T20:21:22.557Z,25.35
2022-08-17T20:23:54.823Z,25.10
2022-08-17T20:26:27.931Z,25.24
2022-08-17T20:29:36.801Z,25.20
2022-08-17T20:32:26.727Z,25.14
2022-08-17T20:35:24.051Z,25.26
2022-08-17T20:37:56.567Z,25.25
2022-08-17T20:40:28.316Z,25.14
2022-08-17T20:42:59.029Z,25.16
2022-08-17T20:45:53.101Z,25.29
2022-08-17T20:48:37.858Z,25.12
2022-08-17T20:51:38.633Z,25.23
2022-08-17T20:54:28.185Z,25.17
2022-08-17T20:57:00.498Z,24.98
2022-08-17T20:59:59.408Z,24.91
2022-08-17T21:02:30.098Z,24.97
2022-08-17T21:05:06.961Z,24.97
2022-08-17T21:07:54.822Z,24.90
2022-08-17T21:10:37.692Z,24.74
2022-08-17T21:13:49.658Z,24.69
2022-08-17T21:16:48.725Z,24.63
2022-08-17T21:19:31.446Z,24.57
2022-08-17T21:22:09.503Z,24.49
2022-08-17T21:24:50.146Z,24.46
2022-08-17T21:27:32.841Z,24.57
2022-08-17T21:30:44.451Z,24.57
2022-08-17T21:33:21.422Z,24.58
2022-08-17T21:35:54.153Z,24.57
2022-08-17T21:38:35.549Z,24.53
2022-08-17T21:41:03.859Z,24.53
2022-08-17T21:43:36.587Z,24.45
2022-08-17T21:46:08.308Z,24.36
2022-08-17T21:48:48.229Z,24.39
2022-08-17T21:51:21.668Z,24.35
2022-08-17T21:53:52.908Z,24.23
2022-08-17T21:56:27.332Z,24.30
2022-08-17T21:58:59.412Z,24.19
2022-08-17T22:01:31.270Z,24.08
2022-08-17T22:04:06.702Z,24.04
2022-08-17T22:06:38.921Z,23.90
2022-08-17T22:09:15.908Z,23.77
2022-08-17T22:11:56.021Z,23.82
2022-08-17T22:14:27.662Z,23.86
2022-08-17T22:17:19.508Z,23.77
2022-08-17T22:19:51.701Z,23.69
2022-08-17T22:22:29.898Z,23.63
2022-08-17T22:25:00.666Z,23.73
2022-08-17T22:27:50.678Z,23.72
2022-08-17T22:30:27.627Z,23.65
2022-08-17T22:32:56.119Z,23.76
2022-08-17T22:35:41.813Z,23.69
2022-08-17T22:38:43.974Z,23.78
2022-08-17T22:41:36.526Z,23.81
2022-08-17T22:44:20.945Z,23.78
2022-08-17T22:46:54.464Z,23.62
2022-08-17T22:49:26.808Z,23.50
2022-08-17T22:52:19.664Z,23.42
2022-08-17T22:55:09.525Z,23.41
2022-08-17T22:57:51.906Z,23.45
2022-08-17T23:00:32.382Z,23.46
2022-08-17T23:03:13.647Z,23.46
2022-08-17T23:05:44.998Z,23.45
2022-08-17T23:08:21.107Z,23.23
2022-08-17T23:10:50.089Z,23.26
2022-08-17T23:13:18.085Z,23.12
2022-08-17T23:15:48.215Z,23.25
2022-08-17T23:18:17.600Z,23.21
2022-08-17T23:20:46.364Z,23.13
2022-08-17T23:23:18.735Z,23.10
2022-08-17T23:25:49.445Z,23.16
2022-08-17T23:28:17.498Z,23.04
2022-08-17T23:30:48.554Z,23.04
2022-08-17T23:33:21.352Z,22.96
2022-08-17T23:35:49.655Z,22.79
2022-08-17T23:38:19.115Z,22.70
2022-08-17T23:40:47.209Z,22.62
2022-08-17T23:43:23.777Z,22.49
2022-08-17T23:45:55.003Z,22.38
2022-08-17T23:48:32.430Z,22.38
2022-08-17T23:51:03.936Z,22.15
2022-08-17T23:53:36.748Z,21.98
2022-08-17T23:56:09.710Z,21.96
2022-08-17T23:58:39.354Z,21.85
